createdAt,value
2018-12-22T00:01:46.921Z,98.10
2018-12-22T00:04:20.726Z,98.00
2018-12-22T00:06:56.259Z,97.90
2018-12-22T00:09:31.751Z,98.00
2018-12-22T00:12:05.443Z,98.00
2018-12-22T00:14:43.056Z,98.00
2018-12-22T00:17:16.626Z,97.90
2018-12-22T00:19:58.018Z,97.90
2018-12-22T00:22:32.083Z,97.80
2018-12-22T00:25:12.397Z,98.00
2018-12-22T00:27:49.589Z,97.90
2018-12-22T00:30:25.476Z,98.00
2018-12-22T00:33:02.736Z,98.10
2018-12-22T00:35:38.199Z,98.10
2018-12-22T00:38:15.621Z,98.10
2018-12-22T00:40:53.587Z,98.20
2018-12-22T00:43:28.987Z,98.20
2018-12-22T00:46:08.296Z,98.20
2018-12-22T00:51:39.512Z,98.10
2018-12-22T00:54:14.629Z,98.20
2018-12-22T00:56:46.028Z,98.20
2018-12-22T00:59:26.919Z,98.10
2018-12-22T01:02:01.982Z,98.00
2018-12-22T01:04:42.600Z,97.90
2018-12-22T01:07:26.465Z,97.80
2018-12-22T01:10:00.418Z,97.70
2018-12-22T01:12:34.211Z,97.80
2018-12-22T01:15:04.818Z,97.70
2018-12-22T01:17:40.143Z,97.80
2018-12-22T01:20:16.130Z,97.90
2018-12-22T01:22:58.031Z,97.90
2018-12-22T01:25:29.216Z,98.00
2018-12-22T01:28:09.194Z,98.00
2018-12-22T01:30:42.531Z,98.10
2018-12-22T01:33:18.142Z,98.20
2018-12-22T01:35:52.850Z,98.20
2018-12-22T01:38:26.684Z,98.30
2018-12-22T01:40:56.143Z,98.40
2018-12-22T01:43:31.398Z,98.20
2018-12-22T01:46:09.064Z,98.40
2018-12-22T01:48:49.000Z,98.40
2018-12-22T01:51:22.383Z,98.50
2018-12-22T01:54:02.636Z,98.40
2018-12-22T01:56:33.636Z,98.40
2018-12-22T01:59:08.939Z,98.50
2018-12-22T02:01:40.076Z,98.60
2018-12-22T02:04:11.758Z,98.60
2018-12-22T02:06:49.068Z,98.60
2018-12-22T02:09:29.190Z,98.50
2018-12-22T02:12:00.826Z,98.50
2018-12-22T02:14:35.771Z,98.60
2018-12-22T02:17:09.008Z,98.70
2018-12-22T02:19:44.078Z,98.70
2018-12-22T02:22:17.733Z,98.90
2018-12-22T02:24:57.760Z,99.00
2018-12-22T02:27:34.902Z,99.00
2018-12-22T02:30:06.380Z,99.10
2018-12-22T02:32:37.959Z,99.30
2018-12-22T02:35:11.299Z,99.30
2018-12-22T02:37:42.560Z,99.60
2018-12-22T02:40:16.707Z,99.80
2018-12-22T02:42:50.483Z,99.80
2018-12-22T02:45:30.625Z,99.90
2018-12-22T02:48:00.461Z,99.90
2018-12-22T02:50:35.275Z,99.90
2018-12-22T02:53:06.599Z,99.90
2018-12-22T02:55:39.868Z,99.90
2018-12-22T02:58:11.314Z,99.90
2018-12-22T03:00:43.115Z,99.90
2018-12-22T03:03:20.807Z,99.90
2018-12-22T03:05:55.479Z,99.90
2018-12-22T03:08:30.928Z,99.90
2018-12-22T03:11:04.936Z,99.90
2018-12-22T03:13:40.414Z,99.90
2018-12-22T03:16:15.088Z,99.90
2018-12-22T03:18:49.091Z,99.90
2018-12-22T03:21:23.468Z,99.90
2018-12-22T03:24:01.384Z,99.90
2018-12-22T03:26:36.824Z,99.90
2018-12-22T03:29:15.428Z,99.90
2018-12-22T03:31:43.720Z,99.90
2018-12-22T03:34:23.994Z,99.90
2018-12-22T03:37:06.405Z,99.90
2018-12-22T03:39:56.749Z,99.90
2018-12-22T03:42:31.221Z,99.90
2018-12-22T03:45:07.297Z,99.90
2018-12-22T03:47:38.649Z,99.90
2018-12-22T03:50:12.530Z,99.90
2018-12-22T03:52:43.789Z,99.90
2018-12-22T03:55:18.812Z,99.90
2018-12-22T03:57:50.468Z,99.90
2018-12-22T04:00:25.195Z,99.90
2018-12-22T04:03:05.247Z,99.90
2018-12-22T04:05:45.997Z,99.90
2018-12-22T04:08:21.093Z,99.90
2018-12-22T04:10:52.380Z,99.90
2018-12-22T04:13:27.604Z,99.90
2018-12-22T04:16:05.692Z,99.90
2018-12-22T04:18:45.587Z,99.90
2018-12-22T04:21:18.859Z,99.90
2018-12-22T04:23:54.436Z,99.90
2018-12-22T04:26:38.483Z,99.90
2018-12-22T04:29:12.747Z,99.90
2018-12-22T04:31:44.002Z,99.90
2018-12-22T04:34:24.411Z,99.90
2018-12-22T04:37:01.605Z,99.80
2018-12-22T04:39:36.484Z,99.80
2018-12-22T04:42:10.127Z,99.60
2018-12-22T04:44:44.905Z,99.80
2018-12-22T04:47:18.544Z,99.60
2018-12-22T04:49:53.296Z,99.40
2018-12-22T04:52:24.366Z,99.40
2018-12-22T04:55:02.085Z,99.40
2018-12-22T04:57:37.329Z,99.40
2018-12-22T05:00:11.301Z,99.40
2018-12-22T05:02:45.308Z,99.30
2018-12-22T05:05:21.023Z,99.20
2018-12-22T05:08:01.213Z,99.10
2018-12-22T05:10:32.983Z,99.10
2018-12-22T05:13:09.239Z,98.90
2018-12-22T05:15:43.675Z,98.70
2018-12-22T05:18:18.679Z,98.60
2018-12-22T05:20:54.350Z,98.40
2018-12-22T05:23:34.301Z,98.30
2018-12-22T05:26:04.985Z,98.10
2018-12-22T05:28:38.383Z,98.00
2018-12-22T05:31:11.818Z,97.80
2018-12-22T05:33:47.730Z,97.60
2018-12-22T05:36:27.916Z,97.40
2018-12-22T05:39:04.852Z,97.40
2018-12-22T05:41:38.779Z,97.30
2018-12-22T05:44:14.751Z,97.20
2018-12-22T05:47:00.981Z,97.10
2018-12-22T05:49:35.743Z,97.00
2018-12-22T05:52:09.412Z,96.90
2018-12-22T05:54:49.636Z,96.60
2018-12-22T05:57:24.482Z,96.30
2018-12-22T06:00:00.686Z,96.00
2018-12-22T06:02:34.812Z,95.80
2018-12-22T06:05:09.296Z,95.70
2018-12-22T06:07:44.093Z,95.50
2018-12-22T06:10:17.787Z,95.20
2018-12-22T06:12:51.660Z,95.30
2018-12-22T06:15:28.381Z,95.20
2018-12-22T06:18:03.537Z,95.00
2018-12-22T06:20:43.485Z,94.90
2018-12-22T06:23:16.745Z,95.00
2018-12-22T06:25:51.600Z,94.80
2018-12-22T06:28:26.299Z,94.50
2018-12-22T06:31:04.707Z,94.50
2018-12-22T06:33:35.781Z,94.40
2018-12-22T06:36:15.429Z,94.40
2018-12-22T06:38:48.623Z,94.70
2018-12-22T06:41:21.714Z,94.20
2018-12-22T06:43:56.388Z,94.30
2018-12-22T06:46:25.567Z,93.80
2018-12-22T06:49:00.610Z,93.50
2018-12-22T06:51:31.924Z,93.20
2018-12-22T06:54:07.010Z,93.30
2018-12-22T06:56:43.137Z,93.50
2018-12-22T06:59:18.129Z,93.50
2018-12-22T07:01:51.783Z,93.30
2018-12-22T07:04:22.988Z,93.20
2018-12-22T07:06:58.392Z,92.80
2018-12-22T07:09:48.718Z,92.90
2018-12-22T07:12:22.679Z,92.90
2018-12-22T07:15:02.756Z,92.80
2018-12-22T07:17:45.001Z,92.80
2018-12-22T07:20:35.672Z,92.70
2018-12-22T07:23:19.081Z,92.90
2018-12-22T07:29:00.707Z,93.10
2018-12-22T07:31:45.797Z,93.40
2018-12-22T07:58:37.439Z,94.10
2018-12-22T08:01:15.457Z,94.10
2018-12-22T08:06:59.298Z,94.30
2018-12-22T08:09:35.500Z,94.40
2018-12-22T08:12:09.148Z,94.40
2018-12-22T08:14:55.610Z,94.60
2018-12-22T08:17:35.876Z,94.60
2018-12-22T08:20:14.247Z,94.40
2018-12-22T08:22:50.529Z,94.20
2018-12-22T08:25:34.522Z,94.20
2018-12-22T08:28:08.600Z,94.20
2018-12-22T08:30:43.517Z,94.30
2018-12-22T08:33:13.216Z,94.30
2018-12-22T08:35:54.014Z,94.80
2018-12-22T08:41:35.833Z,95.10
2018-12-22T08:44:24.208Z,95.10
2018-12-22T08:47:04.594Z,95.00
2018-12-22T08:49:40.001Z,95.10
2018-12-22T08:52:15.693Z,95.10
2018-12-22T08:54:56.052Z,95.00
2018-12-22T08:57:25.637Z,95.10
2018-12-22T09:00:06.351Z,95.10
2018-12-22T09:02:44.529Z,95.10
2018-12-22T09:05:18.570Z,95.50
2018-12-22T09:07:53.351Z,96.10
2018-12-22T09:10:28.613Z,96.20
2018-12-22T09:13:01.255Z,96.50
2018-12-22T09:15:41.033Z,96.70
2018-12-22T09:18:16.229Z,96.70
2018-12-22T09:20:49.825Z,97.10
2018-12-22T09:23:23.942Z,97.40
2018-12-22T09:26:01.462Z,97.50
2018-12-22T09:28:33.025Z,97.80
2018-12-22T09:31:06.589Z,97.60
2018-12-22T09:33:42.173Z,98.10
2018-12-22T09:36:16.253Z,98.20
2018-12-22T09:38:50.689Z,98.30
2018-12-22T09:41:25.140Z,98.20
2018-12-22T09:43:58.867Z,98.30
2018-12-22T09:46:33.913Z,98.50
2018-12-22T09:49:11.211Z,98.80
2018-12-22T09:51:42.722Z,98.90
2018-12-22T09:54:14.123Z,98.90
2018-12-22T09:56:48.587Z,98.60
2018-12-22T09:59:23.971Z,98.80
2018-12-22T10:01:57.777Z,98.80
2018-12-22T10:04:31.268Z,98.90
2018-12-22T10:07:06.897Z,99.00
2018-12-22T10:09:40.775Z,98.40
2018-12-22T10:12:14.787Z,97.70
2018-12-22T10:14:48.232Z,98.20
2018-12-22T10:17:17.573Z,99.00
2018-12-22T10:19:58.167Z,98.30
2018-12-22T10:22:35.571Z,98.30
2018-12-22T10:25:10.291Z,98.20
2018-12-22T10:27:43.798Z,98.20
2018-12-22T10:30:24.712Z,97.90
2018-12-22T10:32:52.696Z,98.20
2018-12-22T10:35:26.772Z,98.00
2018-12-22T10:38:00.037Z,98.00
2018-12-22T10:40:31.356Z,98.00
2018-12-22T10:43:19.960Z,98.00
2018-12-22T10:46:00.206Z,98.00
2018-12-22T10:48:28.145Z,98.30
2018-12-22T10:50:55.829Z,98.30
2018-12-22T10:56:31.168Z,97.70
2018-12-22T10:58:58.996Z,98.60
2018-12-22T11:01:32.868Z,97.80
2018-12-22T11:04:13.121Z,97.50
2018-12-22T11:06:44.116Z,97.40
2018-12-22T11:09:18.454Z,97.70
2018-12-22T11:12:01.111Z,97.90
2018-12-22T11:14:34.854Z,97.90
2018-12-22T11:17:20.604Z,97.60
2018-12-22T11:20:08.745Z,97.50
2018-12-22T11:25:55.101Z,97.40
2018-12-22T11:28:39.799Z,97.20
2018-12-22T11:34:26.580Z,97.60
2018-12-22T11:37:03.181Z,97.20
2018-12-22T11:39:42.656Z,96.70
2018-12-22T11:42:19.477Z,97.10
2018-12-22T11:44:52.539Z,97.00
2018-12-22T11:47:31.728Z,96.30
2018-12-22T11:50:24.227Z,96.50
2018-12-22T11:53:14.672Z,96.70
2018-12-22T11:55:54.917Z,96.80
2018-12-22T11:58:28.859Z,96.80
2018-12-22T12:01:04.528Z,97.00
2018-12-22T12:03:48.761Z,97.00
2018-12-22T12:09:33.186Z,97.30
2018-12-22T12:12:07.511Z,97.40
2018-12-22T12:14:47.754Z,97.50
2018-12-22T12:17:34.060Z,97.60
2018-12-22T12:20:08.729Z,97.90
2018-12-22T12:22:42.352Z,97.90
2018-12-22T12:25:13.873Z,97.90
2018-12-22T12:27:54.536Z,98.20
2018-12-22T12:30:36.372Z,98.20
2018-12-22T12:33:12.945Z,98.10
2018-12-22T12:35:55.063Z,98.10
2018-12-22T12:38:30.240Z,98.10
2018-12-22T12:41:09.973Z,98.30
2018-12-22T12:46:48.919Z,98.20
2018-12-22T12:49:22.863Z,98.10
2018-12-22T12:51:56.497Z,98.20
2018-12-22T12:54:33.945Z,98.30
2018-12-22T12:57:14.110Z,97.90
2018-12-22T12:59:52.071Z,97.70
2018-12-22T13:02:40.387Z,97.40
2018-12-22T13:05:15.314Z,97.50
2018-12-22T13:07:46.312Z,97.70
2018-12-22T13:10:17.333Z,97.90
2018-12-22T13:12:53.197Z,98.10
2018-12-22T13:15:26.414Z,98.20
2018-12-22T13:18:01.986Z,98.50
2018-12-22T13:20:35.991Z,98.30
2018-12-22T13:23:18.021Z,97.80
2018-12-22T13:26:00.015Z,97.50
2018-12-22T13:28:33.471Z,97.30
2018-12-22T13:31:04.827Z,97.30
2018-12-22T13:33:47.428Z,97.40
2018-12-22T13:36:21.321Z,97.30
2018-12-22T13:39:00.957Z,97.50
2018-12-22T13:41:36.915Z,97.40
2018-12-22T13:44:17.504Z,97.50
2018-12-22T13:46:58.209Z,97.40
2018-12-22T13:49:33.467Z,97.40
2018-12-22T13:52:15.344Z,97.20
2018-12-22T13:54:49.430Z,97.40
2018-12-22T13:57:18.665Z,97.10
2018-12-22T14:00:08.704Z,97.00
2018-12-22T14:02:42.270Z,96.90
2018-12-22T14:05:13.192Z,96.80
2018-12-22T14:07:46.492Z,96.60
2018-12-22T14:10:22.108Z,96.30
2018-12-22T14:12:55.977Z,96.20
2018-12-22T14:15:27.056Z,96.20
2018-12-22T14:18:06.933Z,96.10
2018-12-22T14:20:51.128Z,95.80
2018-12-22T14:23:31.141Z,95.90
2018-12-22T14:26:06.437Z,95.60
2018-12-22T14:28:37.482Z,95.50
2018-12-22T14:31:11.839Z,95.60
2018-12-22T14:33:51.690Z,95.60
2018-12-22T14:36:25.157Z,95.40
2018-12-22T14:39:07.255Z,95.50
2018-12-22T14:41:39.354Z,95.50
2018-12-22T14:44:17.810Z,95.40
2018-12-22T14:46:52.821Z,95.50
2018-12-22T14:49:32.605Z,95.40
2018-12-22T14:52:06.172Z,95.50
2018-12-22T14:54:37.310Z,95.50
2018-12-22T14:57:06.017Z,95.60
2018-12-22T15:02:55.289Z,95.70
2018-12-22T15:05:26.708Z,95.80
2018-12-22T15:08:00.458Z,95.90
2018-12-22T15:10:46.984Z,95.80
2018-12-22T15:13:21.678Z,95.90
2018-12-22T15:15:58.536Z,95.80
2018-12-22T15:18:35.018Z,95.80
2018-12-22T15:21:04.444Z,96.00
2018-12-22T15:23:37.601Z,96.10
2018-12-22T15:26:11.714Z,96.00
2018-12-22T15:28:47.246Z,96.00
2018-12-22T15:31:27.697Z,95.80
2018-12-22T15:34:03.174Z,95.80
2018-12-22T15:36:40.948Z,96.10
2018-12-22T15:39:12.150Z,96.10
2018-12-22T15:41:43.873Z,96.10
2018-12-22T15:44:18.190Z,96.10
2018-12-22T15:46:53.679Z,96.10
2018-12-22T15:49:28.038Z,96.20
2018-12-22T15:52:01.605Z,96.30
2018-12-22T15:57:21.670Z,96.00
2018-12-22T16:00:03.098Z,96.00
2018-12-22T16:02:36.683Z,96.10
2018-12-22T16:05:16.696Z,96.00
2018-12-22T16:07:55.078Z,95.90
2018-12-22T16:10:33.017Z,95.90
2018-12-22T16:19:03.557Z,96.00
2018-12-22T16:21:50.078Z,96.00
2018-12-22T16:24:30.259Z,95.90
2018-12-22T16:27:05.867Z,96.00
2018-12-22T16:32:33.743Z,95.90
2018-12-22T16:38:17.736Z,96.00
2018-12-22T16:41:07.310Z,95.90
2018-12-22T16:50:00.618Z,96.60
2018-12-22T16:58:27.638Z,97.00
2018-12-22T17:15:52.928Z,97.40
2018-12-22T17:27:39.661Z,96.80
2018-12-22T17:30:26.705Z,96.70
2018-12-22T17:35:47.031Z,96.70
2018-12-22T17:41:24.302Z,96.90
2018-12-22T17:44:15.123Z,96.90
2018-12-22T17:49:41.392Z,96.90
2018-12-22T18:30:48.133Z,96.50
2018-12-22T18:33:22.149Z,96.60
2018-12-22T18:36:01.754Z,96.40
2018-12-22T18:38:43.408Z,96.40
2018-12-22T18:58:55.151Z,96.20
2018-12-22T19:01:30.985Z,96.10
2018-12-22T19:09:56.141Z,96.30
2018-12-22T19:12:30.635Z,96.20
2018-12-22T19:15:06.464Z,96.10
2018-12-22T19:17:45.632Z,96.40
2018-12-22T19:20:25.808Z,96.40
2018-12-22T19:23:01.460Z,96.40
2018-12-22T19:25:41.870Z,96.50
2018-12-22T19:28:17.747Z,96.40
2018-12-22T19:30:57.905Z,96.50
2018-12-22T19:33:35.823Z,96.40
2018-12-22T19:36:20.054Z,96.30
2018-12-22T19:39:02.160Z,96.30
2018-12-22T19:41:35.045Z,96.40
2018-12-22T19:44:21.207Z,96.40
2018-12-22T19:47:07.794Z,96.30
2018-12-22T19:49:58.630Z,96.30
2018-12-22T19:52:37.571Z,96.20
2018-12-22T20:01:05.370Z,96.50
2018-12-22T20:03:46.959Z,96.50
2018-12-22T20:11:56.725Z,96.70
2018-12-22T20:14:36.728Z,96.70
2018-12-22T20:17:10.152Z,96.60
2018-12-22T20:19:47.886Z,96.70
2018-12-22T20:22:34.544Z,96.80
2018-12-22T20:25:14.997Z,96.70
2018-12-22T20:28:01.772Z,96.90
2018-12-22T20:30:37.723Z,96.80
2018-12-22T20:33:15.228Z,96.70
2018-12-22T20:35:55.198Z,96.80
2018-12-22T20:38:28.445Z,96.70
2018-12-22T20:41:02.047Z,96.20
2018-12-22T20:43:43.421Z,96.20
2018-12-22T20:46:15.029Z,96.30
2018-12-22T20:48:52.979Z,96.10
2018-12-22T20:51:24.056Z,96.10
2018-12-22T20:56:31.635Z,95.90
2018-12-22T20:59:04.987Z,96.00
2018-12-22T21:01:38.578Z,95.80
2018-12-22T21:04:19.865Z,95.80
2018-12-22T21:06:54.747Z,95.90
2018-12-22T21:09:28.523Z,95.80
2018-12-22T21:12:02.459Z,95.60
2018-12-22T21:14:38.095Z,95.40
2018-12-22T21:17:07.441Z,95.50
2018-12-22T21:19:47.918Z,95.40
2018-12-22T21:22:18.900Z,95.40
2018-12-22T21:27:35.480Z,95.40
2018-12-22T21:30:12.882Z,95.80
2018-12-22T21:32:44.294Z,95.40
2018-12-22T21:35:22.580Z,95.50
2018-12-22T21:38:06.493Z,95.70
2018-12-22T21:40:46.605Z,95.70
2018-12-22T21:43:27.077Z,95.80
2018-12-22T21:45:57.895Z,95.80
2018-12-22T21:51:18.783Z,96.00
2018-12-22T21:53:58.383Z,96.10
2018-12-22T21:56:39.130Z,96.20
2018-12-22T21:59:14.524Z,96.00
2018-12-22T22:01:45.331Z,96.00
2018-12-22T22:04:16.207Z,96.00
2018-12-22T22:06:51.426Z,96.00
2018-12-22T22:09:22.632Z,96.20
2018-12-22T22:11:53.685Z,96.20
2018-12-22T22:14:33.275Z,96.30
2018-12-22T22:20:16.388Z,96.30
2018-12-22T22:22:49.380Z,96.30
2018-12-22T22:25:30.645Z,96.20
2018-12-22T22:28:03.738Z,96.40
2018-12-22T22:30:41.925Z,96.40
2018-12-22T22:33:17.163Z,96.30
2018-12-22T22:35:51.390Z,96.20
2018-12-22T22:38:29.295Z,96.30
2018-12-22T22:40:59.973Z,96.20
2018-12-22T22:43:33.065Z,96.40
2018-12-22T22:46:13.065Z,96.40
2018-12-22T22:48:46.267Z,96.40
2018-12-22T22:54:22.599Z,97.30
2018-12-22T22:56:56.208Z,97.30
2018-12-22T22:59:30.029Z,97.40
2018-12-22T23:02:07.717Z,97.50
2018-12-22T23:04:42.841Z,97.60
2018-12-22T23:07:16.291Z,97.60
2018-12-22T23:09:51.248Z,97.70
2018-12-22T23:12:24.863Z,97.90
2018-12-22T23:15:12.326Z,97.90
2018-12-22T23:17:43.665Z,97.90
2018-12-22T23:20:14.542Z,98.10
2018-12-22T23:23:01.475Z,97.90
2018-12-22T23:25:36.188Z,97.70
2018-12-22T23:28:09.797Z,97.80
2018-12-22T23:30:43.667Z,97.70
2018-12-22T23:33:18.528Z,97.80
2018-12-22T23:35:49.651Z,97.80
2018-12-22T23:38:22.792Z,97.50
2018-12-22T23:40:54.085Z,97.40
2018-12-22T23:43:22.899Z,97.30
2018-12-22T23:45:51.971Z,97.30
2018-12-22T23:48:26.956Z,97.30
2018-12-22T23:51:09.271Z,97.30
2018-12-22T23:53:40.472Z,97.30
2018-12-22T23:56:11.139Z,97.30
2018-12-22T23:58:39.960Z,97.00
